Time;durP1;ratioP1;P1;durP2;ratioP2;P2;SDS_P1;SDS_P2;PMS_P1;PMS_P2;Temp;Humidity;BMP_temperature;BMP_pressure;BME280_temperature;BME280_humidity;BME280_pressure;Samples;Min_cycle;Max_cycle;Signal;HPM_P1;HPM_P2
2021/11/25 00:00:06;;;;;;;30.98;21.02;;;8.20;76.90;;;;;;5016181;28;92377;-68
2021/11/25 00:02:38;;;;;;;33.97;21.52;;;8.20;76.70;;;;;;5015495;28;91970;-68
2021/11/25 00:05:07;;;;;;;33.25;20.80;;;8.20;76.90;;;;;;5015786;28;93106;-67
2021/11/25 00:07:34;;;;;;;34.53;22.38;;;8.20;76.90;;;;;;5015900;28;92783;-68
2021/11/25 00:10:01;;;;;;;34.65;21.30;;;8.20;76.90;;;;;;4980153;28;94945;-67
2021/11/25 00:12:28;;;;;;;34.03;22.13;;;8.20;76.80;;;;;;5016172;28;92467;-68
2021/11/25 00:14:55;;;;;;;30.38;20.35;;;8.20;76.80;;;;;;5016032;28;93072;-67
2021/11/25 00:17:22;;;;;;;32.80;21.60;;;8.20;76.80;;;;;;5015895;28;92808;-67
2021/11/25 00:19:49;;;;;;;35.67;21.70;;;8.20;77.00;;;;;;4997827;28;102068;-68
2021/11/25 00:22:16;;;;;;;35.85;22.60;;;8.20;77.00;;;;;;5015811;28;92511;-67
2021/11/25 00:24:43;;;;;;;33.88;22.73;;;8.20;77.40;;;;;;4997814;28;94046;-67
2021/11/25 00:27:10;;;;;;;32.13;21.35;;;8.10;77.10;;;;;;5016298;28;92882;-67
2021/11/25 00:29:38;;;;;;;31.75;20.92;;;8.10;77.30;;;;;;4997761;28;93308;-67
2021/11/25 00:32:05;;;;;;;34.28;22.50;;;8.20;77.40;;;;;;5015798;28;92464;-67
2021/11/25 00:34:32;;;;;;;36.55;22.73;;;8.20;77.40;;;;;;4996774;28;95500;-67
2021/11/25 00:36:59;;;;;;;36.05;23.10;;;8.20;77.30;;;;;;5015511;28;95339;-68
2021/11/25 00:39:26;;;;;;;34.63;21.85;;;8.20;77.40;;;;;;4997791;28;92457;-68
2021/11/25 00:41:53;;;;;;;32.63;21.92;;;8.20;77.60;;;;;;5015919;28;92571;-68
2021/11/25 00:44:20;;;;;;;35.00;22.92;;;8.10;77.50;;;;;;4997573;28;94117;-67
2021/11/25 00:46:47;;;;;;;38.30;23.85;;;8.20;77.60;;;;;;4997225;28;94025;-68
2021/11/25 00:49:14;;;;;;;34.60;22.60;;;8.20;77.70;;;;;;4997427;28;92448;-68
2021/11/25 00:51:41;;;;;;;34.78;22.88;;;8.20;77.70;;;;;;5015451;28;91781;-68
2021/11/25 00:54:09;;;;;;;35.53;21.83;;;8.20;77.70;;;;;;5015299;28;93342;-68
2021/11/25 00:56:36;;;;;;;38.03;23.15;;;8.20;77.80;;;;;;5015425;28;92955;-68
2021/11/25 00:59:03;;;;;;;39.10;23.25;;;8.20;77.80;;;;;;5014248;28;94749;-68
2021/11/25 01:01:29;;;;;;;35.38;22.33;;;8.20;77.90;;;;;;5015397;28;92564;-68
2021/11/25 01:03:57;;;;;;;36.40;23.40;;;8.20;78.00;;;;;;5015262;28;93092;-67
2021/11/25 01:06:24;;;;;;;39.13;24.63;;;8.20;78.00;;;;;;5014658;28;102519;-67
2021/11/25 01:08:51;;;;;;;41.35;25.02;;;8.20;78.00;;;;;;5015326;28;92449;-67
2021/11/25 01:11:38;;;;;;;36.75;23.13;;;8.20;78.00;;;;;;5015588;28;92365;-67
2021/11/25 01:14:06;;;;;;;36.45;23.25;;;8.20;78.00;;;;;;5015177;28;93009;-67
2021/11/25 01:16:33;;;;;;;40.70;24.95;;;8.20;78.00;;;;;;5015327;28;92924;-68
2021/11/25 01:18:59;;;;;;;41.88;26.00;;;8.20;78.10;;;;;;4997451;28;92570;-68
2021/11/25 01:21:26;;;;;;;43.20;25.45;;;8.20;78.10;;;;;;5014991;28;92441;-68
2021/11/25 01:23:53;;;;;;;43.10;27.23;;;8.20;78.70;;;;;;4996064;28;95343;-68
2021/11/25 01:26:20;;;;;;;43.05;25.38;;;8.20;78.10;;;;;;5014672;28;95136;-68
2021/11/25 01:28:47;;;;;;;44.78;26.15;;;8.20;78.00;;;;;;5015172;28;92386;-67
2021/11/25 01:31:14;;;;;;;46.83;26.77;;;8.20;78.00;;;;;;5014043;28;101498;-67
2021/11/25 01:33:41;;;;;;;46.47;26.10;;;8.20;78.10;;;;;;5014995;28;93194;-68
2021/11/25 01:36:08;;;;;;;44.00;26.60;;;8.20;78.10;;;;;;4997008;28;92895;-68
2021/11/25 01:38:35;;;;;;;45.35;26.23;;;8.20;78.10;;;;;;5015267;28;92337;-68
2021/11/25 01:41:02;;;;;;;42.88;25.42;;;8.20;78.10;;;;;;5015300;28;91693;-68
2021/11/25 01:43:30;;;;;;;44.63;26.02;;;8.20;78.30;;;;;;4996324;28;94373;-68
2021/11/25 01:45:57;;;;;;;42.60;25.30;;;8.20;78.10;;;;;;5014645;28;92968;-68
2021/11/25 01:48:24;;;;;;;45.35;26.67;;;8.20;78.20;;;;;;5013161;28;94854;-68
2021/11/25 01:50:53;;;;;;;43.63;26.52;;;8.20;78.40;;;;;;5014923;28;92520;-68
2021/11/25 01:53:20;;;;;;;43.35;25.73;;;8.20;78.40;;;;;;5014411;28;93100;-68
2021/11/25 01:55:48;;;;;;;47.10;27.80;;;8.20;78.90;;;;;;5014127;28;107644;-68
2021/11/25 01:58:15;;;;;;;43.85;26.00;;;8.20;78.30;;;;;;5014288;28;92548;-67
2021/11/25 02:00:51;;;;;;;45.88;26.60;;;8.20;78.40;;;;;;5014862;28;92398;-68
2021/11/25 02:03:19;;;;;;;46.13;26.83;;;8.20;78.40;;;;;;4998556;28;93274;-68
2021/11/25 02:05:46;;;;;;;52.75;27.65;;;8.10;78.50;;;;;;5018331;28;92812;-68
2021/11/25 02:08:13;;;;;;;49.45;26.40;;;8.20;78.50;;;;;;5018279;28;92345;-68
2021/11/25 02:10:43;;;;;;;46.83;27.38;;;8.20;78.50;;;;;;5017750;28;92615;-67
2021/11/25 02:13:11;;;;;;;50.58;27.35;;;8.10;78.80;;;;;;4998593;28;96505;-68
2021/11/25 02:15:38;;;;;;;48.50;26.23;;;8.10;78.90;;;;;;5017607;28;95167;-68
2021/11/25 02:18:08;;;;;;;47.50;27.30;;;8.10;78.90;;;;;;5017430;28;100879;-68
2021/11/25 02:20:41;;;;;;;45.70;26.73;;;8.10;79.00;;;;;;5017925;28;92777;-68
2021/11/25 02:23:11;;;;;;;50.07;26.33;;;8.10;79.10;;;;;;5017563;28;93174;-67
2021/11/25 02:25:38;;;;;;;50.30;28.65;;;8.00;79.10;;;;;;4999451;28;95622;-68
2021/11/25 02:28:06;;;;;;;49.85;27.73;;;8.00;79.20;;;;;;5017743;28;92358;-68
2021/11/25 02:30:37;;;;;;;56.15;28.90;;;8.00;79.30;;;;;;5017963;28;92305;-68
2021/11/25 02:33:05;;;;;;;48.08;27.08;;;8.00;79.20;;;;;;5017647;28;92961;-67
2021/11/25 02:35:35;;;;;;;52.45;29.13;;;8.00;79.20;;;;;;4999536;28;92736;-67
2021/11/25 02:38:02;;;;;;;57.05;29.58;;;8.00;79.20;;;;;;4998442;28;94909;-68
2021/11/25 02:40:32;;;;;;;57.88;29.45;;;8.00;79.20;;;;;;5017347;28;92440;-68
2021/11/25 02:43:08;;;;;;;55.40;29.75;;;8.00;79.30;;;;;;5017592;28;92996;-68
2021/11/25 02:45:58;;;;;;;58.60;30.83;;;8.10;79.30;;;;;;5017033;28;92835;-68
2021/11/25 02:48:28;;;;;;;57.70;30.83;;;8.10;79.20;;;;;;5017054;28;92503;-68
2021/11/25 02:50:57;;;;;;;61.33;30.42;;;8.10;79.30;;;;;;4999721;28;92558;-68
2021/11/25 02:53:30;;;;;;;59.65;29.25;;;8.10;79.30;;;;;;4998754;28;104221;-68
2021/11/25 02:55:59;;;;;;;60.97;29.42;;;8.10;79.20;;;;;;5017843;28;92858;-67
2021/11/25 02:58:27;;;;;;;57.25;28.38;;;8.10;79.30;;;;;;5017184;28;92342;-68
2021/11/25 03:00:57;;;;;;;59.97;29.45;;;8.10;79.30;;;;;;5017172;28;92468;-68
2021/11/25 03:03:24;;;;;;;57.88;30.10;;;8.10;79.20;;;;;;5016002;28;95414;-67
2021/11/25 03:05:52;;;;;;;59.90;28.38;;;8.10;79.20;;;;;;5016980;28;95140;-68
2021/11/25 03:08:21;;;;;;;57.40;30.25;;;8.10;79.80;;;;;;5017149;28;92452;-67
2021/11/25 03:11:04;;;;;;;58.55;30.15;;;8.10;79.30;;;;;;4999402;28;92606;-68
2021/11/25 03:13:33;;;;;;;63.75;30.15;;;8.10;79.30;;;;;;5016590;28;93331;-67
2021/11/25 03:16:00;;;;;;;57.97;31.05;;;8.10;79.40;;;;;;4998859;28;94084;-68
2021/11/25 03:18:29;;;;;;;59.38;29.52;;;8.10;79.30;;;;;;4998582;28;96976;-67
2021/11/25 03:20:57;;;;;;;62.60;30.35;;;8.10;79.20;;;;;;5017450;28;91794;-68
2021/11/25 03:23:28;;;;;;;63.50;31.70;;;8.10;79.30;;;;;;5016777;28;93009;-68
2021/11/25 03:25:56;;;;;;;59.45;30.20;;;8.10;79.40;;;;;;4998970;28;92824;-67
2021/11/25 03:28:24;;;;;;;61.35;30.10;;;8.20;79.40;;;;;;5015789;28;94862;-68
2021/11/25 03:30:55;;;;;;;64.93;31.40;;;8.10;79.40;;;;;;5016933;28;92452;-68
2021/11/25 03:33:31;;;;;;;64.03;31.55;;;8.10;79.60;;;;;;5016950;28;93122;-68
2021/11/25 03:36:01;;;;;;;55.60;28.23;;;8.10;79.80;;;;;;5016842;28;93419;-68
2021/11/25 03:38:29;;;;;;;62.47;30.20;;;8.10;80.10;;;;;;5016576;28;92528;-67
2021/11/25 03:40:56;;;;;;;67.38;31.30;;;8.10;80.30;;;;;;5016431;28;97628;-67
2021/11/25 03:43:23;;;;;;;66.85;30.88;;;8.10;80.20;;;;;;5016495;28;93001;-68
2021/11/25 03:45:50;;;;;;;69.53;32.85;;;8.10;80.20;;;;;;4978932;28;95605;-67
2021/11/25 03:48:18;;;;;;;65.75;31.02;;;8.10;80.20;;;;;;4978244;28;92960;-68
2021/11/25 03:50:45;;;;;;;70.57;32.22;;;8.10;80.50;;;;;;4995741;28;92437;-67
2021/11/25 03:53:12;;;;;;;68.93;31.38;;;8.10;80.30;;;;;;4995212;28;95390;-68
2021/11/25 03:55:39;;;;;;;62.60;29.83;;;8.10;80.40;;;;;;4995988;28;95285;-67
2021/11/25 03:58:06;;;;;;;71.88;31.75;;;8.10;80.30;;;;;;4996389;28;92878;-67
2021/11/25 04:00:33;;;;;;;68.18;31.55;;;8.10;80.30;;;;;;4996215;28;92397;-67
2021/11/25 04:03:02;;;;;;;69.15;31.35;;;8.20;80.20;;;;;;4996200;28;93064;-68
2021/11/25 04:05:30;;;;;;;71.35;32.60;;;8.20;80.30;;;;;;4995500;28;92631;-67
2021/11/25 04:07:58;;;;;;;71.53;31.92;;;8.10;80.30;;;;;;4996246;28;92500;-68
2021/11/25 04:10:25;;;;;;;68.80;30.35;;;8.20;80.40;;;;;;4979185;28;92070;-68
2021/11/25 04:12:52;;;;;;;74.88;31.88;;;8.20;80.30;;;;;;4977866;28;94398;-68
2021/11/25 04:15:19;;;;;;;72.28;32.67;;;8.20;80.30;;;;;;4978402;28;92445;-67
2021/11/25 04:17:46;;;;;;;68.65;31.95;;;8.20;80.30;;;;;;4994819;28;94750;-68
2021/11/25 04:20:15;;;;;;;72.60;32.13;;;8.20;80.30;;;;;;4996094;28;92455;-68
2021/11/25 04:22:43;;;;;;;68.45;31.08;;;8.20;80.40;;;;;;4995771;28;93146;-68
2021/11/25 04:25:11;;;;;;;74.45;32.97;;;8.20;80.30;;;;;;4977064;28;103246;-67
2021/11/25 04:27:38;;;;;;;72.38;31.85;;;8.20;80.40;;;;;;4977490;28;94059;-68
2021/11/25 04:35:35;;;;;;;66.80;31.30;;;8.20;80.30;;;;;;4996361;28;93009;-68
2021/11/25 04:38:11;;;;;;;64.57;30.10;;;8.20;80.30;;;;;;4995954;28;92435;-67
2021/11/25 04:40:49;;;;;;;69.53;30.38;;;8.20;80.30;;;;;;4961316;28;92498;-67
2021/11/25 04:43:18;;;;;;;66.80;30.17;;;8.20;80.50;;;;;;4994546;28;97595;-68
2021/11/25 04:45:48;;;;;;;69.72;31.10;;;8.20;80.30;;;;;;4977612;28;95244;-68
2021/11/25 04:48:17;;;;;;;66.40;30.42;;;8.20;80.30;;;;;;4995465;28;92478;-67
2021/11/25 04:50:45;;;;;;;67.68;31.90;;;8.20;80.40;;;;;;4994926;28;100662;-67
2021/11/25 04:53:13;;;;;;;63.97;29.73;;;8.10;80.50;;;;;;4977659;28;94181;-67
2021/11/25 04:55:42;;;;;;;68.72;30.10;;;8.10;80.80;;;;;;4995104;28;94749;-67
2021/11/25 04:58:09;;;;;;;70.20;30.27;;;8.10;80.80;;;;;;4995543;28;92369;-68
2021/11/25 05:00:37;;;;;;;69.70;31.08;;;8.10;80.80;;;;;;4978133;28;91771;-67
2021/11/25 05:03:04;;;;;;;68.38;30.38;;;8.10;80.80;;;;;;4995285;28;93070;-68
2021/11/25 05:05:32;;;;;;;71.18;30.42;;;8.00;80.90;;;;;;4960571;28;114436;-68
2021/11/25 05:07:59;;;;;;;67.07;29.92;;;8.00;81.00;;;;;;4975777;28;95274;-68
2021/11/25 05:10:26;;;;;;;66.05;29.90;;;8.00;81.00;;;;;;4995451;28;92499;-68
2021/11/25 05:12:53;;;;;;;63.60;29.65;;;8.00;81.00;;;;;;4995047;28;93054;-67
2021/11/25 05:15:20;;;;;;;65.38;28.75;;;8.00;80.80;;;;;;4995316;28;92967;-67
2021/11/25 05:17:47;;;;;;;64.55;30.15;;;8.00;80.80;;;;;;4977102;28;101465;-68
2021/11/25 05:20:15;;;;;;;66.15;30.25;;;7.90;81.30;;;;;;4995095;28;92471;-67
2021/11/25 05:22:43;;;;;;;60.35;28.60;;;7.90;81.10;;;;;;4994770;28;93071;-67
2021/11/25 05:25:12;;;;;;;62.33;29.25;;;7.90;81.00;;;;;;4977738;28;92894;-67
2021/11/25 05:27:39;;;;;;;65.60;30.15;;;7.90;81.20;;;;;;4995061;28;92470;-72
2021/11/25 05:30:09;;;;;;;62.33;30.10;;;7.90;80.90;;;;;;4995107;28;92505;-72
2021/11/25 05:32:36;;;;;;;59.17;29.35;;;7.90;80.90;;;;;;4992863;28;107881;-72
2021/11/25 05:35:04;;;;;;;62.30;30.42;;;7.80;81.20;;;;;;4994301;28;98220;-72
2021/11/25 05:37:32;;;;;;;64.28;30.67;;;7.80;81.20;;;;;;4995056;28;92444;-72
2021/11/25 05:39:59;;;;;;;59.55;29.27;;;7.70;81.10;;;;;;4994709;28;92465;-72
2021/11/25 05:42:26;;;;;;;60.05;28.42;;;7.70;81.30;;;;;;4994878;28;93126;-73
2021/11/25 05:44:53;;;;;;;57.83;29.00;;;7.60;81.00;;;;;;4994588;28;92801;-73
2021/11/25 05:47:20;;;;;;;66.97;30.42;;;7.50;80.90;;;;;;4994717;28;92814;-73
2021/11/25 05:49:47;;;;;;;69.57;31.10;;;7.50;81.10;;;;;;4976774;28;91773;-73
2021/11/25 05:52:14;;;;;;;66.13;29.23;;;7.40;81.30;;;;;;4994648;28;93097;-72
2021/11/25 05:54:41;;;;;;;65.10;30.67;;;7.30;81.40;;;;;;4994774;28;92741;-67
2021/11/25 05:57:08;;;;;;;65.13;29.27;;;7.20;81.30;;;;;;4993102;28;95668;-68
2021/11/25 05:59:35;;;;;;;63.15;31.50;;;7.20;81.90;;;;;;4994789;28;92420;-67
2021/11/25 06:02:03;;;;;;;66.22;32.92;;;7.10;81.60;;;;;;4994191;28;93154;-67
2021/11/25 06:04:31;;;;;;;62.97;30.77;;;7.10;82.20;;;;;;4994103;28;104764;-67
2021/11/25 06:06:58;;;;;;;68.72;32.95;;;7.00;82.10;;;;;;4994307;28;92565;-68
2021/11/25 06:09:24;;;;;;;64.28;30.45;;;7.00;82.00;;;;;;4994742;28;92437;-67
2021/11/25 06:11:51;;;;;;;63.88;32.75;;;7.10;82.00;;;;;;4976526;28;93308;-67
2021/11/25 06:14:18;;;;;;;65.95;32.40;;;7.10;81.90;;;;;;4960604;28;94069;-72
2021/11/25 06:16:45;;;;;;;61.38;29.50;;;7.00;81.80;;;;;;4976437;28;92409;-73
2021/11/25 06:19:12;;;;;;;60.85;33.10;;;7.00;81.50;;;;;;4994300;28;92421;-73
2021/11/25 06:21:39;;;;;;;63.47;31.50;;;7.00;81.40;;;;;;4992637;28;105042;-67
2021/11/25 06:24:10;;;;;;;61.10;30.50;;;7.00;81.50;;;;;;4994190;28;95153;-68
2021/11/25 06:26:42;;;;;;;66.82;31.58;;;7.00;81.50;;;;;;4976510;28;92458;-68
2021/11/25 06:29:09;;;;;;;66.00;31.85;;;7.00;81.50;;;;;;4994249;28;92483;-72
2021/11/25 06:31:36;;;;;;;63.95;34.00;;;7.00;81.20;;;;;;4993901;28;93156;-72
2021/11/25 06:34:03;;;;;;;64.88;33.65;;;7.00;81.50;;;;;;4993906;28;92404;-72
2021/11/25 06:36:30;;;;;;;61.45;34.10;;;7.10;81.50;;;;;;4994435;28;92802;-72
2021/11/25 06:38:57;;;;;;;63.40;35.38;;;7.10;81.50;;;;;;4976818;28;91758;-73
2021/11/25 06:41:24;;;;;;;62.28;33.63;;;7.00;81.10;;;;;;4994021;28;93121;-72
2021/11/25 06:43:51;;;;;;;62.92;33.42;;;7.00;81.20;;;;;;4975802;28;94140;-72
2021/11/25 06:46:18;;;;;;;60.35;33.22;;;7.10;81.20;;;;;;4992803;28;94865;-72
2021/11/25 06:48:45;;;;;;;65.25;34.85;;;7.10;81.00;;;;;;4995912;28;92391;-72
2021/11/25 06:51:12;;;;;;;60.25;34.80;;;7.10;80.80;;;;;;4979309;28;93196;-72
2021/11/25 06:53:39;;;;;;;58.55;34.33;;;7.00;81.00;;;;;;4979211;28;94032;-72
2021/11/25 06:56:06;;;;;;;62.58;34.45;;;7.10;81.00;;;;;;4997377;28;92843;-72
2021/11/25 06:58:33;;;;;;;62.33;35.72;;;7.10;80.80;;;;;;4997332;28;92450;-72
2021/11/25 07:01:03;;;;;;;63.22;35.03;;;7.10;80.60;;;;;;4996894;28;93118;-72
2021/11/25 07:03:33;;;;;;;61.85;33.90;;;7.10;80.40;;;;;;4997386;28;92966;-72
2021/11/25 07:06:01;;;;;;;60.58;34.42;;;7.10;80.60;;;;;;4979020;28;92483;-72
2021/11/25 07:08:29;;;;;;;63.05;34.75;;;7.20;81.00;;;;;;4996580;28;100322;-72
2021/11/25 07:10:58;;;;;;;61.13;34.42;;;7.20;80.50;;;;;;4977773;28;96573;-73
2021/11/25 07:13:26;;;;;;;61.80;35.22;;;7.20;80.20;;;;;;4996761;28;95303;-72
2021/11/25 07:15:54;;;;;;;61.97;35.80;;;7.30;80.20;;;;;;4997090;28;92415;-73
2021/11/25 07:18:21;;;;;;;63.75;35.22;;;7.30;79.90;;;;;;4979085;28;92374;-72
2021/11/25 07:20:48;;;;;;;60.28;34.00;;;7.30;79.90;;;;;;4975662;28;93013;-73
2021/11/25 07:23:15;;;;;;;57.13;33.58;;;7.30;79.90;;;;;;4991598;28;93959;-72
2021/11/25 07:25:42;;;;;;;56.50;33.55;;;7.40;79.90;;;;;;4997069;28;92432;-72
2021/11/25 07:28:09;;;;;;;57.63;35.58;;;7.40;79.80;;;;;;4978685;28;95700;-72
2021/11/25 07:30:36;;;;;;;58.55;34.42;;;7.40;79.60;;;;;;4996697;28;93000;-73
2021/11/25 07:33:03;;;;;;;57.92;33.17;;;7.40;79.80;;;;;;4978967;28;92487;-72
2021/11/25 07:35:30;;;;;;;55.42;33.40;;;7.40;79.30;;;;;;4978124;28;95203;-73
2021/11/25 07:37:59;;;;;;;55.08;36.00;;;7.50;79.60;;;;;;4996862;28;92420;-73
2021/11/25 07:40:26;;;;;;;59.53;37.08;;;7.50;79.60;;;;;;4996380;28;93143;-72
2021/11/25 07:42:53;;;;;;;61.00;33.65;;;7.50;79.40;;;;;;4996506;28;93527;-73
2021/11/25 07:45:25;;;;;;;58.67;33.83;;;7.50;79.10;;;;;;4996656;28;92560;-73
2021/11/25 07:47:52;;;;;;;56.97;34.58;;;7.60;79.50;;;;;;4995973;28;92821;-72
2021/11/25 07:50:21;;;;;;;55.03;34.05;;;7.60;79.00;;;;;;4996267;28;93129;-68
2021/11/25 07:52:50;;;;;;;59.50;35.08;;;7.60;79.20;;;;;;4996392;28;94046;-67
2021/11/25 07:55:17;;;;;;;56.42;34.30;;;7.60;79.50;;;;;;4996378;28;93147;-68
2021/11/25 07:57:44;;;;;;;58.13;36.45;;;7.70;79.20;;;;;;4978047;28;103658;-68
2021/11/25 08:00:13;;;;;;;57.85;33.20;;;7.70;79.00;;;;;;4993740;28;95381;-68
2021/11/25 08:02:41;;;;;;;63.40;35.50;;;7.80;78.80;;;;;;4978045;28;96583;-68
2021/11/25 08:05:10;;;;;;;58.00;33.40;;;7.80;78.80;;;;;;4978510;28;92450;-68
2021/11/25 08:07:39;;;;;;;58.60;34.75;;;7.80;78.60;;;;;;4996118;28;92437;-68
2021/11/25 08:10:09;;;;;;;60.08;35.33;;;7.80;78.60;;;;;;4977742;28;94394;-67
2021/11/25 08:12:36;;;;;;;60.22;35.75;;;7.90;78.50;;;;;;4978431;28;93019;-67
2021/11/25 08:15:04;;;;;;;61.53;34.20;;;7.90;78.30;;;;;;4995922;28;98401;-67
2021/11/25 08:17:31;;;;;;;58.25;34.85;;;8.00;78.10;;;;;;4996728;28;91921;-67
2021/11/25 08:19:58;;;;;;;57.80;32.33;;;8.00;78.00;;;;;;4995734;28;93049;-67
2021/11/25 08:22:25;;;;;;;57.53;34.95;;;8.00;78.00;;;;;;4977575;28;94207;-68
2021/11/25 08:24:52;;;;;;;58.90;33.17;;;8.00;78.20;;;;;;4977198;28;94915;-72
2021/11/25 08:27:19;;;;;;;62.35;35.25;;;8.00;78.40;;;;;;4978176;28;92597;-72
2021/11/25 08:29:46;;;;;;;61.88;35.92;;;8.00;78.60;;;;;;4995874;28;95968;-73
2021/11/25 08:32:13;;;;;;;63.92;34.75;;;8.00;78.90;;;;;;4995534;28;92872;-73
2021/11/25 08:34:41;;;;;;;64.30;37.40;;;8.10;78.40;;;;;;4995855;28;92744;-73
2021/11/25 08:37:08;;;;;;;65.38;38.15;;;8.10;78.60;;;;;;4995405;28;95535;-73
2021/11/25 08:39:37;;;;;;;68.80;37.55;;;8.10;78.90;;;;;;4995656;28;92993;-73
2021/11/25 08:42:05;;;;;;;70.70;38.85;;;8.10;79.30;;;;;;4977909;28;94051;-73
2021/11/25 08:44:32;;;;;;;73.15;38.53;;;8.10;79.70;;;;;;4995474;28;92440;-73
2021/11/25 08:47:00;;;;;;;70.10;37.70;;;8.10;79.90;;;;;;4995195;28;92444;-72
2021/11/25 08:49:29;;;;;;;68.30;37.75;;;8.10;79.50;;;;;;4975910;28;96573;-73
2021/11/25 08:51:57;;;;;;;65.18;34.45;;;8.10;79.60;;;;;;4977111;28;110249;-73
2021/11/25 08:54:24;;;;;;;68.13;37.20;;;8.20;79.60;;;;;;4977208;28;93147;-73
2021/11/25 08:56:52;;;;;;;73.82;38.20;;;8.20;80.30;;;;;;4995480;28;92526;-73
2021/11/25 08:59:20;;;;;;;73.07;39.20;;;8.10;80.30;;;;;;4994982;28;93131;-72
2021/11/25 09:01:47;;;;;;;70.75;37.58;;;8.10;80.40;;;;;;4995003;28;92777;-73
2021/11/25 09:04:14;;;;;;;69.38;36.42;;;8.10;80.50;;;;;;4994858;28;95940;-73
2021/11/25 09:06:42;;;;;;;72.38;37.08;;;8.10;80.20;;;;;;4977442;28;92174;-72
2021/11/25 09:09:09;;;;;;;75.53;39.30;;;8.10;80.50;;;;;;4994959;28;92962;-73
2021/11/25 09:11:37;;;;;;;78.32;39.63;;;8.20;80.60;;;;;;4994322;28;93116;-73
2021/11/25 09:14:05;;;;;;;77.18;40.30;;;8.20;80.90;;;;;;4994219;28;94826;-73
2021/11/25 09:16:32;;;;;;;70.07;36.95;;;8.20;80.50;;;;;;4994971;28;92852;-72
2021/11/25 09:19:00;;;;;;;67.40;37.45;;;8.20;80.30;;;;;;4976324;28;95239;-72
2021/11/25 09:21:30;;;;;;;73.97;40.08;;;8.30;81.10;;;;;;4994471;28;92929;-73
2021/11/25 09:23:59;;;;;;;74.68;39.05;;;8.40;80.50;;;;;;4995050;28;92699;-73
2021/11/25 09:26:26;;;;;;;73.07;38.83;;;8.50;80.20;;;;;;4976601;28;100516;-73
2021/11/25 09:28:58;;;;;;;65.22;37.63;;;8.50;79.80;;;;;;4994488;28;93182;-73
2021/11/25 09:31:27;;;;;;;72.43;38.13;;;8.60;79.70;;;;;;4977051;28;93988;-73
2021/11/25 09:33:54;;;;;;;71.50;39.10;;;8.60;79.20;;;;;;4977157;28;92479;-73
2021/11/25 09:36:23;;;;;;;67.18;37.83;;;8.60;79.50;;;;;;4977316;28;92615;-68
2021/11/25 09:38:55;;;;;;;75.25;39.28;;;8.60;79.60;;;;;;4993669;28;95351;-68
2021/11/25 09:41:23;;;;;;;69.00;37.15;;;8.70;79.30;;;;;;4994644;28;95203;-68
2021/11/25 09:43:50;;;;;;;66.78;36.85;;;8.70;79.10;;;;;;4977063;28;92514;-68
2021/11/25 09:46:19;;;;;;;70.80;37.47;;;8.70;79.20;;;;;;4993323;28;101002;-68
2021/11/25 09:48:48;;;;;;;64.15;35.85;;;8.70;79.20;;;;;;4994830;28;92927;-68
2021/11/25 09:51:16;;;;;;;67.15;36.60;;;8.70;79.30;;;;;;4994557;28;92855;-68
2021/11/25 09:53:43;;;;;;;69.35;35.70;;;8.70;79.70;;;;;;4976572;28;92510;-68
2021/11/25 09:56:10;;;;;;;70.25;38.15;;;8.70;79.90;;;;;;4995175;28;91725;-68
2021/11/25 09:58:38;;;;;;;65.55;35.40;;;8.70;79.80;;;;;;4976207;28;94154;-68
2021/11/25 10:01:12;;;;;;;72.40;38.40;;;8.80;79.80;;;;;;4994532;28;92780;-73
2021/11/25 10:03:48;;;;;;;;;;;8.90;80.00;;;;;;4993819;28;95355;-73
2021/11/25 10:06:20;;;;;;;67.40;35.85;;;8.90;80.00;;;;;;4996688;28;92441;-73
2021/11/25 10:08:52;;;;;;;71.45;36.55;;;9.00;79.90;;;;;;4994449;28;93100;-73
2021/11/25 10:11:30;;;;;;;63.88;35.22;;;9.10;79.70;;;;;;4994583;28;92871;-73
2021/11/25 10:14:08;;;;;;;63.42;34.17;;;9.30;79.60;;;;;;4994773;28;92436;-73
2021/11/25 10:16:39;;;;;;;71.03;36.03;;;9.30;79.50;;;;;;4994360;28;92432;-73
2021/11/25 10:19:17;;;;;;;63.83;33.17;;;9.50;79.50;;;;;;4994552;28;93046;-73
2021/11/25 10:21:52;;;;;;;67.30;33.22;;;9.60;79.10;;;;;;4994541;28;92896;-73
2021/11/25 10:24:34;;;;;;;52.20;31.00;;;9.70;78.80;;;;;;4962647;28;92415;-73
2021/11/25 10:27:26;;;;;;;58.78;32.15;;;9.80;78.60;;;;;;4998093;28;93218;-73
2021/11/25 10:30:17;;;;;;;57.35;33.05;;;10.00;78.10;;;;;;4996683;28;95576;-73
2021/11/25 10:33:00;;;;;;;57.13;33.70;;;10.10;78.00;;;;;;4994309;28;95029;-73
2021/11/25 10:35:35;;;;;;;52.30;30.25;;;10.30;77.70;;;;;;4997964;28;92457;-73
2021/11/25 10:40:34;;;;;;;51.65;30.55;;;10.60;76.90;;;;;;4979986;28;92994;-73
2021/11/25 10:43:24;;;;;;;54.97;32.17;;;10.70;76.80;;;;;;4996880;28;109424;-73
2021/11/25 10:45:55;;;;;;;55.90;33.08;;;10.70;76.40;;;;;;4997754;28;92384;-73
2021/11/25 10:48:35;;;;;;;54.33;31.77;;;10.60;76.20;;;;;;4997482;28;91692;-73
2021/11/25 10:51:27;;;;;;;58.13;32.38;;;10.70;77.10;;;;;;4997355;28;94149;-73
2021/11/25 10:54:17;;;;;;;50.00;29.45;;;10.60;76.00;;;;;;4997582;28;92874;-73
2021/11/25 10:56:49;;;;;;;55.58;31.08;;;10.60;76.30;;;;;;4996220;28;95001;-73
2021/11/25 10:59:20;;;;;;;61.47;33.20;;;10.50;76.70;;;;;;4997751;28;92353;-73
2021/11/25 11:01:50;;;;;;;56.67;31.25;;;10.50;76.70;;;;;;4997261;28;95382;-73
2021/11/25 11:04:18;;;;;;;54.92;32.53;;;10.50;76.90;;;;;;4997381;28;93124;-73
2021/11/25 11:06:53;;;;;;;63.40;31.73;;;10.50;77.00;;;;;;4997145;28;92444;-73
2021/11/25 11:09:39;;;;;;;54.65;32.17;;;10.60;77.00;;;;;;4996836;28;98000;-73
2021/11/25 11:12:29;;;;;;;59.05;31.33;;;10.70;76.80;;;;;;4978623;28;94502;-74
2021/11/25 11:15:12;;;;;;;49.33;28.60;;;10.70;76.90;;;;;;4997598;28;93025;-73
2021/11/25 11:18:00;;;;;;;49.20;28.08;;;10.70;76.60;;;;;;4997158;28;92364;-73
2021/11/25 11:20:29;;;;;;;54.25;29.05;;;10.80;76.80;;;;;;4997289;28;92424;-73
2021/11/25 11:23:05;;;;;;;48.40;26.85;;;10.80;76.90;;;;;;4995487;28;95641;-68
2021/11/25 11:25:35;;;;;;;50.38;29.23;;;10.80;76.70;;;;;;4996619;28;95342;-68
2021/11/25 11:28:04;;;;;;;52.30;28.42;;;10.80;76.80;;;;;;4978778;28;92391;-69
2021/11/25 11:30:31;;;;;;;46.05;28.58;;;10.80;76.70;;;;;;4996243;28;105991;-68
2021/11/25 11:32:58;;;;;;;54.08;29.27;;;10.80;76.70;;;;;;4996709;28;93091;-73
2021/11/25 11:35:26;;;;;;;47.97;27.88;;;10.90;76.70;;;;;;4996525;28;93970;-73
2021/11/25 11:37:58;;;;;;;52.53;27.52;;;10.90;77.30;;;;;;4996522;28;92471;-73
2021/11/25 11:40:27;;;;;;;47.17;27.63;;;10.90;76.60;;;;;;4979486;28;91701;-73
2021/11/25 11:42:57;;;;;;;51.30;27.75;;;10.80;76.70;;;;;;4996329;28;93062;-73
2021/11/25 11:45:26;;;;;;;50.28;28.85;;;10.80;77.10;;;;;;5004264;28;92869;-73
2021/11/25 11:47:56;;;;;;;48.33;27.58;;;10.70;77.10;;;;;;4995870;28;95039;-73
2021/11/25 11:50:38;;;;;;;48.03;26.30;;;10.70;77.30;;;;;;4996640;28;92464;-73
2021/11/25 11:53:13;;;;;;;48.88;25.92;;;10.70;77.30;;;;;;4996456;28;93177;-73
2021/11/25 11:55:44;;;;;;;47.53;24.88;;;10.70;77.40;;;;;;4996303;28;92973;-73
2021/11/25 11:58:29;;;;;;;41.58;24.67;;;10.70;77.30;;;;;;4978554;28;92424;-73
2021/11/25 12:00:58;;;;;;;43.40;23.90;;;10.80;77.20;;;;;;4996457;28;92354;-74
2021/11/25 12:03:44;;;;;;;46.55;23.65;;;10.80;77.40;;;;;;4996387;28;92967;-74
2021/11/25 12:06:28;;;;;;;41.47;23.05;;;10.80;77.30;;;;;;4978488;28;93988;-73
2021/11/25 12:08:55;;;;;;;40.55;23.05;;;10.90;77.20;;;;;;4996164;28;92424;-73
2021/11/25 12:11:22;;;;;;;38.22;22.83;;;10.90;77.00;;;;;;4995641;28;109874;-73
2021/11/25 12:14:02;;;;;;;37.60;20.55;;;11.10;76.70;;;;;;4994657;28;95468;-73
2021/11/25 12:16:35;;;;;;;29.95;18.08;;;11.20;76.20;;;;;;4977858;28;96436;-73
2021/11/25 12:19:08;;;;;;;29.98;17.98;;;11.20;76.10;;;;;;4994613;28;92531;-73
2021/11/25 12:21:35;;;;;;;32.10;17.85;;;11.20;76.00;;;;;;4996378;28;92342;-72
2021/11/25 12:24:31;;;;;;;32.05;18.73;;;11.40;75.70;;;;;;4995572;28;93112;-72
2021/11/25 12:27:23;;;;;;;27.85;16.02;;;11.50;75.10;;;;;;4995422;28;92914;-72
2021/11/25 12:29:55;;;;;;;28.75;15.20;;;11.50;75.00;;;;;;4995665;28;92477;-72
2021/11/25 12:35:25;;;;;;;27.92;16.02;;;11.40;74.50;;;;;;4977804;28;94485;-72
2021/11/25 12:38:03;;;;;;;28.90;15.93;;;11.20;74.80;;;;;;4977539;28;93984;-72
2021/11/25 12:40:59;;;;;;;31.85;14.70;;;11.20;75.10;;;;;;4993880;28;94826;-72
2021/11/25 12:43:30;;;;;;;20.80;10.15;;;11.10;75.30;;;;;;4996092;28;92366;-72
2021/11/25 12:46:03;;;;;;;17.33;8.48;;;11.00;75.20;;;;;;4994661;28;92992;-72
2021/11/25 12:48:36;;;;;;;16.95;7.38;;;10.90;74.20;;;;;;4996055;28;93268;-72
2021/11/25 12:51:08;;;;;;;12.55;5.95;;;10.80;73.80;;;;;;4996107;28;92456;-72
2021/11/25 12:53:59;;;;;;;10.20;5.18;;;10.90;73.40;;;;;;4996294;28;92424;-72
2021/11/25 12:56:38;;;;;;;11.13;4.75;;;11.10;72.70;;;;;;4996120;28;93094;-72
2021/11/25 12:59:13;;;;;;;14.95;5.28;;;11.10;72.00;;;;;;4996187;28;92750;-72